Time,TemperatureF,DewpointF,PressureIn,WindDirection,WindDirectionDegrees,WindSpeedMPH,WindSpeedGustMPH,Humidity,HourlyPrecipIn,Conditions,Clouds,dailyrainin,SolarRadiationWatts/m^2,SoftwareType,DateUTC
2013-01-31 00:29:00,57.6,56.8,29.42,SSE,160,7.0,20.0,97,0.00,CLR,,0.15,0.0,WeatherDisplay:10.37,2013-01-31 05:29:00,
2013-01-31 00:59:00,57.8,57.0,29.41,South,171,7.0,18.0,97,0.00,CLR,,0.15,0.0,WeatherDisplay:10.37,2013-01-31 05:59:00,
2013-01-31 01:29:00,58.2,57.4,29.38,South,170,8.0,20.0,97,0.00,CLR,,0.15,0.0,WeatherDisplay:10.37,2013-01-31 06:29:00,
2013-01-31 01:59:00,58.2,57.4,29.34,South,171,7.0,21.0,97,0.00,RA,,0.00,0.0,WeatherDisplay:10.37,2013-01-31 06:59:00,
2013-01-31 02:29:00,58.0,57.4,29.31,South,173,10.0,23.0,98,0.01,RA,,0.01,0.0,WeatherDisplay:10.37,2013-01-31 07:29:00,
2013-01-31 02:59:00,58.0,57.4,29.28,South,174,8.0,22.0,98,0.00,CLR,,0.01,0.0,WeatherDisplay:10.37,2013-01-31 07:59:00,
2013-01-31 03:29:00,58.1,57.2,29.23,SSE,167,9.0,24.0,97,0.01,CLR,,0.02,0.0,WeatherDisplay:10.37,2013-01-31 08:29:00,
2013-01-31 03:59:00,58.5,57.6,29.19,South,185,16.0,32.0,97,0.00,CLR,,0.02,0.0,WeatherDisplay:10.37,2013-01-31 08:59:00,
2013-01-31 04:29:00,59.0,57.9,29.15,South,171,16.0,31.0,96,0.00,,,0.02,0.0,WeatherDisplay:10.37,2013-01-31 09:29:00,
2013-01-31 04:59:00,59.4,58.0,29.13,South,179,9.0,38.0,95,0.00,CLR,,0.02,0.0,WeatherDisplay:10.37,2013-01-31 09:59:00,
2013-01-31 05:29:00,59.8,58.4,29.10,South,182,14.0,38.0,95,0.01,,,0.03,0.0,WeatherDisplay:10.37,2013-01-31 10:29:00,
2013-01-31 05:59:00,59.2,58.1,29.06,SSE,167,15.0,39.0,96,0.02,,,0.05,0.0,WeatherDisplay:10.37,2013-01-31 10:59:00,
2013-01-31 06:29:00,59.5,58.3,29.00,SSE,168,12.0,37.0,96,0.02,CLR,,0.07,0.0,WeatherDisplay:10.37,2013-01-31 11:29:00,
2013-01-31 06:59:00,59.0,57.9,29.03,South,183,9.0,37.0,96,0.01,OVC,,0.08,0.0,WeatherDisplay:10.37,2013-01-31 11:59:00,
2013-01-31 07:29:00,59.0,57.6,29.03,South,180,3.0,26.0,95,0.01,BKN,,0.09,5.0,WeatherDisplay:10.37,2013-01-31 12:29:00,
2013-01-31 07:59:00,57.8,56.1,28.99,SSE,166,9.0,21.0,94,0.00,BKN,,0.09,14.0,WeatherDisplay:10.37,2013-01-31 12:59:00,
2013-01-31 08:29:00,57.6,55.6,28.98,South,177,9.0,25.0,93,0.00,BKN,,0.09,39.0,WeatherDisplay:10.37,2013-01-31 13:29:00,
2013-01-31 08:59:00,57.0,55.0,28.96,South,172,8.0,23.0,93,0.00,BKN,,0.09,21.0,WeatherDisplay:10.37,2013-01-31 13:59:00,
2013-01-31 09:29:00,56.8,54.2,28.96,South,187,5.0,22.0,91,0.00,BKN,,0.09,40.0,WeatherDisplay:10.37,2013-01-31 14:29:00,
2013-01-31 09:59:00,44.8,42.3,29.05,WSW,258,6.0,21.0,91,0.08,RA,,0.17,105.0,WeatherDisplay:10.37,2013-01-31 14:59:00,
2013-01-31 10:29:00,43.1,40.9,29.06,WSW,253,2.0,20.0,92,0.00,BKN,,0.17,155.0,WeatherDisplay:10.37,2013-01-31 15:29:00,
2013-01-31 10:59:00,44.3,40.3,29.09,West,267,3.0,14.0,86,0.00,CLR,,0.17,568.0,WeatherDisplay:10.37,2013-01-31 15:59:00,
2013-01-31 11:29:00,45.1,38.0,29.13,West,266,7.0,20.0,76,0.00,CLR,,0.17,540.0,WeatherDisplay:10.37,2013-01-31 16:29:00,
2013-01-31 11:59:00,44.6,36.5,29.14,West,274,6.0,17.0,73,0.00,BKN,,0.17,197.0,WeatherDisplay:10.37,2013-01-31 16:59:00,
2013-01-31 12:29:00,43.4,33.9,29.16,West,260,5.0,27.0,69,0.00,FEW,,0.17,526.0,WeatherDisplay:10.37,2013-01-31 17:29:00,
2013-01-31 12:59:00,44.7,32.1,29.18,WSW,254,3.0,16.0,61,0.00,CLR,,0.17,506.0,WeatherDisplay:10.37,2013-01-31 17:59:00,
2013-01-31 13:29:00,45.3,31.4,29.18,West,272,6.0,16.0,58,0.00,CLR,,0.17,629.0,WeatherDisplay:10.37,2013-01-31 18:29:00,
2013-01-31 13:59:00,43.4,30.0,29.21,West,277,6.0,15.0,59,0.00,SCT,,0.17,120.0,WeatherDisplay:10.37,2013-01-31 18:59:00,
2013-01-31 14:29:00,41.4,26.9,29.23,WSW,241,1.0,14.0,56,0.00,BKN,,0.17,51.0,WeatherDisplay:10.37,2013-01-31 19:29:00,
2013-01-31 14:59:00,41.4,25.1,29.26,WSW,255,6.0,15.0,52,0.01,BKN,,0.18,46.0,WeatherDisplay:10.37,2013-01-31 19:59:00,
2013-01-31 15:29:00,40.8,25.0,29.28,WSW,256,3.0,17.0,53,0.00,BKN,,0.18,44.0,WeatherDisplay:10.37,2013-01-31 20:29:00,
2013-01-31 15:59:00,40.1,21.9,29.30,West,271,6.0,17.0,48,0.00,BKN,,0.18,32.0,WeatherDisplay:10.37,2013-01-31 20:59:00,
2013-01-31 16:29:00,39.2,23.5,29.33,WSW,250,1.0,17.0,53,0.00,BKN,,0.18,19.0,WeatherDisplay:10.37,2013-01-31 21:29:00,
2013-01-31 16:59:00,38.1,23.8,29.35,West,275,3.0,13.0,56,0.00,CLR,,0.18,0.0,WeatherDisplay:10.37,2013-01-31 21:59:00,
2013-01-31 17:29:00,37.1,23.3,29.37,West,281,1.0,12.0,57,0.00,CLR,,0.18,0.0,WeatherDisplay:10.37,2013-01-31 22:29:00,
2013-01-31 17:59:00,36.6,23.2,29.39,West,268,5.0,16.0,58,0.00,CLR,,0.18,0.0,WeatherDisplay:10.37,2013-01-31 22:59:00,
2013-01-31 18:29:00,35.2,23.1,29.41,WSW,253,1.0,12.0,61,0.00,CLR,,0.18,0.0,WeatherDisplay:10.37,2013-01-31 23:29:00,
2013-01-31 18:59:00,34.7,23.0,29.44,WSW,255,3.0,12.0,62,0.00,CLR,,0.18,0.0,WeatherDisplay:10.37,2013-01-31 23:59:00,
2013-01-31 19:29:00,34.2,21.7,29.45,West,278,3.0,17.0,60,0.00,CLR,,0.18,0.0,WeatherDisplay:10.37,2013-02-01 00:29:00,
2013-01-31 19:59:00,33.3,22.4,29.47,West,259,2.0,12.0,64,0.00,CLR,,0.18,0.0,WeatherDisplay:10.37,2013-02-01 00:59:00,
2013-01-31 20:29:00,32.5,21.7,29.50,WSW,244,6.0,14.0,64,0.00,CLR,,0.18,0.0,WeatherDisplay:10.37,2013-02-01 01:29:00,
2013-01-31 21:00:00,31.9,21.4,29.51,WSW,253,1.0,12.0,65,0.00,CLR,,0.18,0.0,WeatherDisplay:10.37,2013-02-01 02:00:00,
2013-01-31 21:30:00,31.5,20.4,29.53,WSW,244,2.0,12.0,63,0.00,CLR,,0.18,0.0,WeatherDisplay:10.37,2013-02-01 02:30:00,
2013-01-31 22:00:00,31.0,20.2,29.54,West,267,2.0,14.0,64,0.00,CLR,,0.18,0.0,WeatherDisplay:10.37,2013-02-01 03:00:00,
2013-01-31 22:30:00,30.3,19.6,29.55,WSW,243,2.0,15.0,64,0.00,CLR,,0.18,0.0,WeatherDisplay:10.37,2013-02-01 03:30:00,
2013-01-31 23:00:00,29.8,19.1,29.56,West,267,1.0,12.0,64,0.00,CLR,,0.18,0.0,WeatherDisplay:10.37,2013-02-01 04:00:00,
2013-01-31 23:30:00,29.2,19.6,29.57,West,263,3.0,15.0,67,0.00,CLR,,0.18,0.0,WeatherDisplay:10.37,2013-02-01 04:30:00,